sensor_id;sensor_type;location;lat;lon;timestamp;pressure;altitude;pressure_sealevel;temperature
70415;BMP280;57837;52.064;113.478;2023-03-03T00:00:44;93831.44;;;-2.36
70415;BMP280;57837;52.064;113.478;2023-03-03T00:03:47;93836.00;;;-2.45
70415;BMP280;57837;52.064;113.478;2023-03-03T00:06:50;93839.97;;;-2.48
70415;BMP280;57837;52.064;113.478;2023-03-03T00:09:54;93853.13;;;-2.39
70415;BMP280;57837;52.064;113.478;2023-03-03T00:12:58;93857.97;;;-2.53
70415;BMP280;57837;52.064;113.478;2023-03-03T00:16:13;93858.53;;;-2.63
70415;BMP280;57837;52.064;113.478;2023-03-03T00:19:18;93865.41;;;-2.63
70415;BMP280;57837;52.064;113.478;2023-03-03T00:22:34;93860.13;;;-2.55
70415;BMP280;57837;52.064;113.478;2023-03-03T00:25:42;93871.25;;;-2.59
70415;BMP280;57837;52.064;113.478;2023-03-03T00:28:48;93883.66;;;-2.54
70415;BMP280;57837;52.064;113.478;2023-03-03T00:31:51;93889.66;;;-2.40
70415;BMP280;57837;52.064;113.478;2023-03-03T00:35:00;93880.19;;;-2.43
70415;BMP280;57837;52.064;113.478;2023-03-03T00:38:16;93898.00;;;-2.16
70415;BMP280;57837;52.064;113.478;2023-03-03T00:41:25;93897.09;;;-1.78
70415;BMP280;57837;52.064;113.478;2023-03-03T00:47:45;93900.22;;;-1.32
70415;BMP280;57837;52.064;113.478;2023-03-03T00:50:50;93903.63;;;-0.87
70415;BMP280;57837;52.064;113.478;2023-03-03T00:53:55;93913.13;;;-0.40
70415;BMP280;57837;52.064;113.478;2023-03-03T00:56:58;93911.69;;;0.10
70415;BMP280;57837;52.064;113.478;2023-03-03T01:00:02;93913.09;;;0.73
70415;BMP280;57837;52.064;113.478;2023-03-03T01:03:11;93920.41;;;0.85
70415;BMP280;57837;52.064;113.478;2023-03-03T01:06:14;93927.03;;;1.11
70415;BMP280;57837;52.064;113.478;2023-03-03T01:09:18;93931.47;;;1.53
70415;BMP280;57837;52.064;113.478;2023-03-03T01:12:22;93924.22;;;1.80
70415;BMP280;57837;52.064;113.478;2023-03-03T01:15:26;93934.03;;;2.14
70415;BMP280;57837;52.064;113.478;2023-03-03T01:18:29;93932.16;;;2.21
70415;BMP280;57837;52.064;113.478;2023-03-03T01:21:33;93938.75;;;2.26
70415;BMP280;57837;52.064;113.478;2023-03-03T01:24:37;93936.47;;;2.60
70415;BMP280;57837;52.064;113.478;2023-03-03T01:27:40;93931.59;;;2.90
70415;BMP280;57837;52.064;113.478;2023-03-03T01:30:44;93927.94;;;2.88
70415;BMP280;57837;52.064;113.478;2023-03-03T01:33:48;93941.22;;;2.61
70415;BMP280;57837;52.064;113.478;2023-03-03T01:36:51;93940.44;;;2.68
70415;BMP280;57837;52.064;113.478;2023-03-03T01:39:55;93943.25;;;2.95
70415;BMP280;57837;52.064;113.478;2023-03-03T01:42:59;93944.91;;;3.26
70415;BMP280;57837;52.064;113.478;2023-03-03T01:49:15;93947.78;;;3.35
70415;BMP280;57837;52.064;113.478;2023-03-03T01:52:37;93952.63;;;3.74
70415;BMP280;57837;52.064;113.478;2023-03-03T01:55:42;93954.94;;;4.40
70415;BMP280;57837;52.064;113.478;2023-03-03T01:58:51;93946.53;;;4.74
70415;BMP280;57837;52.064;113.478;2023-03-03T02:01:55;93935.72;;;4.89
70415;BMP280;57837;52.064;113.478;2023-03-03T02:04:58;93938.44;;;5.06
70415;BMP280;57837;52.064;113.478;2023-03-03T02:08:02;93929.47;;;4.90
70415;BMP280;57837;52.064;113.478;2023-03-03T02:11:10;93933.69;;;5.04
70415;BMP280;57837;52.064;113.478;2023-03-03T02:14:14;93932.25;;;5.00
70415;BMP280;57837;52.064;113.478;2023-03-03T02:17:17;93927.94;;;5.20
70415;BMP280;57837;52.064;113.478;2023-03-03T02:23:52;93917.44;;;6.04
70415;BMP280;57837;52.064;113.478;2023-03-03T02:26:56;93924.63;;;6.13
70415;BMP280;57837;52.064;113.478;2023-03-03T02:30:14;93922.22;;;6.81
70415;BMP280;57837;52.064;113.478;2023-03-03T02:33:19;93918.28;;;7.57
70415;BMP280;57837;52.064;113.478;2023-03-03T02:36:27;93922.47;;;7.96
70415;BMP280;57837;52.064;113.478;2023-03-03T02:39:31;93917.63;;;7.98
70415;BMP280;57837;52.064;113.478;2023-03-03T02:42:35;93920.16;;;7.86
70415;BMP280;57837;52.064;113.478;2023-03-03T02:45:42;93923.09;;;7.55
70415;BMP280;57837;52.064;113.478;2023-03-03T02:48:46;93923.03;;;7.43
70415;BMP280;57837;52.064;113.478;2023-03-03T02:51:50;93919.59;;;7.33
70415;BMP280;57837;52.064;113.478;2023-03-03T02:54:54;93922.72;;;7.25
70415;BMP280;57837;52.064;113.478;2023-03-03T02:57:58;93916.63;;;7.18
70415;BMP280;57837;52.064;113.478;2023-03-03T03:01:01;93926.81;;;7.38
70415;BMP280;57837;52.064;113.478;2023-03-03T03:04:14;93924.31;;;7.51
70415;BMP280;57837;52.064;113.478;2023-03-03T03:07:21;93930.84;;;7.39
70415;BMP280;57837;52.064;113.478;2023-03-03T03:10:25;93922.56;;;7.32
70415;BMP280;57837;52.064;113.478;2023-03-03T03:13:29;93927.78;;;7.44
70415;BMP280;57837;52.064;113.478;2023-03-03T03:16:34;93935.31;;;7.68
70415;BMP280;57837;52.064;113.478;2023-03-03T03:19:38;93926.34;;;7.88
70415;BMP280;57837;52.064;113.478;2023-03-03T03:22:41;93925.50;;;8.20
70415;BMP280;57837;52.064;113.478;2023-03-03T03:25:45;93926.03;;;8.15
70415;BMP280;57837;52.064;113.478;2023-03-03T03:28:56;93925.22;;;8.18
70415;BMP280;57837;52.064;113.478;2023-03-03T03:32:00;93925.94;;;8.19
70415;BMP280;57837;52.064;113.478;2023-03-03T03:35:03;93921.56;;;8.45
70415;BMP280;57837;52.064;113.478;2023-03-03T03:38:06;93920.44;;;8.58
70415;BMP280;57837;52.064;113.478;2023-03-03T03:41:11;93914.88;;;8.60
70415;BMP280;57837;52.064;113.478;2023-03-03T03:44:16;93911.88;;;8.74
70415;BMP280;57837;52.064;113.478;2023-03-03T03:47:19;93911.34;;;8.92
70415;BMP280;57837;52.064;113.478;2023-03-03T03:50:23;93907.44;;;9.00
70415;BMP280;57837;52.064;113.478;2023-03-03T03:53:27;93903.91;;;8.94
70415;BMP280;57837;52.064;113.478;2023-03-03T03:56:30;93903.91;;;8.81
70415;BMP280;57837;52.064;113.478;2023-03-03T03:59:34;93900.91;;;8.83
70415;BMP280;57837;52.064;113.478;2023-03-03T04:02:37;93899.88;;;8.93
70415;BMP280;57837;52.064;113.478;2023-03-03T04:05:44;93896.88;;;8.94
70415;BMP280;57837;52.064;113.478;2023-03-03T04:08:47;93896.56;;;9.18
70415;BMP280;57837;52.064;113.478;2023-03-03T04:11:54;93888.91;;;9.14
70415;BMP280;57837;52.064;113.478;2023-03-03T04:14:57;93890.16;;;9.09
70415;BMP280;57837;52.064;113.478;2023-03-03T04:18:03;93895.19;;;9.13
70415;BMP280;57837;52.064;113.478;2023-03-03T04:21:13;93891.91;;;9.12
70415;BMP280;57837;52.064;113.478;2023-03-03T04:24:18;93888.09;;;9.17
70415;BMP280;57837;52.064;113.478;2023-03-03T04:27:24;93887.56;;;9.09
70415;BMP280;57837;52.064;113.478;2023-03-03T04:30:27;93883.41;;;9.25
70415;BMP280;57837;52.064;113.478;2023-03-03T04:33:31;93876.56;;;9.31
70415;BMP280;57837;52.064;113.478;2023-03-03T04:36:35;93870.34;;;9.41
70415;BMP280;57837;52.064;113.478;2023-03-03T04:39:40;93876.88;;;9.33
70415;BMP280;57837;52.064;113.478;2023-03-03T04:43:09;93873.47;;;9.36
70415;BMP280;57837;52.064;113.478;2023-03-03T04:46:13;93874.38;;;9.29
70415;BMP280;57837;52.064;113.478;2023-03-03T04:49:17;93867.91;;;9.25
70415;BMP280;57837;52.064;113.478;2023-03-03T04:52:21;93866.63;;;9.29
70415;BMP280;57837;52.064;113.478;2023-03-03T04:55:25;93858.69;;;9.36
70415;BMP280;57837;52.064;113.478;2023-03-03T04:58:29;93857.97;;;9.36
70415;BMP280;57837;52.064;113.478;2023-03-03T05:01:32;93853.38;;;9.40
70415;BMP280;57837;52.064;113.478;2023-03-03T05:04:37;93849.16;;;9.46
70415;BMP280;57837;52.064;113.478;2023-03-03T05:07:40;93852.22;;;9.53
70415;BMP280;57837;52.064;113.478;2023-03-03T05:10:44;93841.63;;;9.61
70415;BMP280;57837;52.064;113.478;2023-03-03T05:13:47;93839.34;;;9.63
70415;BMP280;57837;52.064;113.478;2023-03-03T05:16:51;93832.59;;;9.56
70415;BMP280;57837;52.064;113.478;2023-03-03T05:19:54;93836.34;;;9.42
70415;BMP280;57837;52.064;113.478;2023-03-03T05:22:59;93830.69;;;9.35
70415;BMP280;57837;52.064;113.478;2023-03-03T05:26:03;93829.19;;;9.25
70415;BMP280;57837;52.064;113.478;2023-03-03T05:29:08;93821.13;;;9.23
70415;BMP280;57837;52.064;113.478;2023-03-03T05:32:12;93822.63;;;9.33
70415;BMP280;57837;52.064;113.478;2023-03-03T05:35:16;93823.09;;;9.40
70415;BMP280;57837;52.064;113.478;2023-03-03T05:38:20;93826.06;;;9.51
70415;BMP280;57837;52.064;113.478;2023-03-03T05:41:24;93815.78;;;9.61
70415;BMP280;57837;52.064;113.478;2023-03-03T05:44:27;93819.56;;;9.69
70415;BMP280;57837;52.064;113.478;2023-03-03T05:47:31;93816.00;;;9.75
70415;BMP280;57837;52.064;113.478;2023-03-03T05:50:36;93820.38;;;9.87
70415;BMP280;57837;52.064;113.478;2023-03-03T05:53:40;93820.34;;;9.78
70415;BMP280;57837;52.064;113.478;2023-03-03T05:56:44;93825.34;;;9.73
70415;BMP280;57837;52.064;113.478;2023-03-03T05:59:48;93818.59;;;9.75
70415;BMP280;57837;52.064;113.478;2023-03-03T06:02:51;93817.03;;;9.78
70415;BMP280;57837;52.064;113.478;2023-03-03T06:05:55;93813.47;;;9.84
70415;BMP280;57837;52.064;113.478;2023-03-03T06:09:00;93818.69;;;9.93
70415;BMP280;57837;52.064;113.478;2023-03-03T06:12:04;93817.75;;;10.00
70415;BMP280;57837;52.064;113.478;2023-03-03T06:15:08;93816.97;;;9.90
70415;BMP280;57837;52.064;113.478;2023-03-03T06:18:12;93811.59;;;9.85
70415;BMP280;57837;52.064;113.478;2023-03-03T06:21:16;93815.91;;;9.79
70415;BMP280;57837;52.064;113.478;2023-03-03T06:24:19;93811.75;;;9.81
70415;BMP280;57837;52.064;113.478;2023-03-03T06:27:23;93814.81;;;9.89
70415;BMP280;57837;52.064;113.478;2023-03-03T06:30:27;93814.97;;;9.94
70415;BMP280;57837;52.064;113.478;2023-03-03T06:33:33;93813.41;;;9.97
70415;BMP280;57837;52.064;113.478;2023-03-03T06:36:36;93813.88;;;10.05
70415;BMP280;57837;52.064;113.478;2023-03-03T06:39:40;93813.47;;;10.06
70415;BMP280;57837;52.064;113.478;2023-03-03T06:42:43;93810.59;;;10.13
70415;BMP280;57837;52.064;113.478;2023-03-03T06:45:47;93805.00;;;10.15
70415;BMP280;57837;52.064;113.478;2023-03-03T06:48:51;93810.19;;;10.15
70415;BMP280;57837;52.064;113.478;2023-03-03T06:52:11;93817.56;;;10.25
70415;BMP280;57837;52.064;113.478;2023-03-03T06:55:22;93817.72;;;10.31
70415;BMP280;57837;52.064;113.478;2023-03-03T06:58:26;93817.13;;;10.27
70415;BMP280;57837;52.064;113.478;2023-03-03T07:01:35;93816.16;;;10.33
70415;BMP280;57837;52.064;113.478;2023-03-03T07:04:39;93821.47;;;10.39
70415;BMP280;57837;52.064;113.478;2023-03-03T07:07:43;93821.47;;;10.39
70415;BMP280;57837;52.064;113.478;2023-03-03T07:10:48;93828.22;;;10.37
70415;BMP280;57837;52.064;113.478;2023-03-03T07:13:54;93821.03;;;10.41
70415;BMP280;57837;52.064;113.478;2023-03-03T07:17:04;93824.50;;;10.47
70415;BMP280;57837;52.064;113.478;2023-03-03T07:20:18;93823.66;;;10.50
70415;BMP280;57837;52.064;113.478;2023-03-03T07:23:39;93831.84;;;10.48
70415;BMP280;57837;52.064;113.478;2023-03-03T07:26:46;93833.69;;;10.39
70415;BMP280;57837;52.064;113.478;2023-03-03T07:29:52;93844.03;;;10.39
70415;BMP280;57837;52.064;113.478;2023-03-03T07:32:57;93833.56;;;10.33
70415;BMP280;57837;52.064;113.478;2023-03-03T07:36:02;93826.94;;;10.32
70415;BMP280;57837;52.064;113.478;2023-03-03T07:39:33;93828.66;;;10.35
70415;BMP280;57837;52.064;113.478;2023-03-03T07:42:41;93831.38;;;10.31
70415;BMP280;57837;52.064;113.478;2023-03-03T07:46:21;93827.66;;;10.42
70415;BMP280;57837;52.064;113.478;2023-03-03T07:49:35;93828.38;;;10.42
70415;BMP280;57837;52.064;113.478;2023-03-03T07:52:42;93823.63;;;10.41
70415;BMP280;57837;52.064;113.478;2023-03-03T07:55:45;93823.47;;;10.35
70415;BMP280;57837;52.064;113.478;2023-03-03T07:58:49;93826.66;;;10.39
70415;BMP280;57837;52.064;113.478;2023-03-03T08:01:54;93822.91;;;10.40
70415;BMP280;57837;52.064;113.478;2023-03-03T08:04:58;93823.63;;;10.31
70415;BMP280;57837;52.064;113.478;2023-03-03T08:11:12;93823.63;;;10.31
70415;BMP280;57837;52.064;113.478;2023-03-03T08:14:23;93824.91;;;10.36
70415;BMP280;57837;52.064;113.478;2023-03-03T08:17:35;93822.91;;;10.40
70415;BMP280;57837;52.064;113.478;2023-03-03T08:20:53;93824.50;;;10.38
70415;BMP280;57837;52.064;113.478;2023-03-03T08:23:57;93825.66;;;10.37
70415;BMP280;57837;52.064;113.478;2023-03-03T08:27:00;93828.22;;;10.37
70415;BMP280;57837;52.064;113.478;2023-03-03T08:30:06;93820.03;;;10.38
70415;BMP280;57837;52.064;113.478;2023-03-03T08:33:11;93823.06;;;10.46
70415;BMP280;57837;52.064;113.478;2023-03-03T08:36:14;93818.19;;;10.48
70415;BMP280;57837;52.064;113.478;2023-03-03T08:39:17;93828.84;;;10.50
70415;BMP280;57837;52.064;113.478;2023-03-03T08:42:20;93827.22;;;10.43
70415;BMP280;57837;52.064;113.478;2023-03-03T08:45:24;93828.09;;;10.40
70415;BMP280;57837;52.064;113.478;2023-03-03T08:48:28;93831.41;;;10.41
70415;BMP280;57837;52.064;113.478;2023-03-03T08:51:32;93821.91;;;10.38
70415;BMP280;57837;52.064;113.478;2023-03-03T08:54:36;93825.34;;;10.34
70415;BMP280;57837;52.064;113.478;2023-03-03T08:57:40;93829.94;;;10.30
70415;BMP280;57837;52.064;113.478;2023-03-03T09:00:44;93829.94;;;10.30
70415;BMP280;57837;52.064;113.478;2023-03-03T09:03:52;93826.75;;;10.26
70415;BMP280;57837;52.064;113.478;2023-03-03T09:06:55;93826.56;;;10.21
70415;BMP280;57837;52.064;113.478;2023-03-03T09:10:00;93821.25;;;10.15
70415;BMP280;57837;52.064;113.478;2023-03-03T09:13:09;93831.97;;;10.05
70415;BMP280;57837;52.064;113.478;2023-03-03T09:16:14;93835.22;;;10.27
70415;BMP280;57837;52.064;113.478;2023-03-03T09:19:28;93833.47;;;10.55
70415;BMP280;57837;52.064;113.478;2023-03-03T09:22:35;93840.28;;;10.30
70415;BMP280;57837;52.064;113.478;2023-03-03T09:25:40;93831.59;;;10.15
70415;BMP280;57837;52.064;113.478;2023-03-03T09:28:44;93838.25;;;10.25
70415;BMP280;57837;52.064;113.478;2023-03-03T09:31:52;93836.75;;;10.06
70415;BMP280;57837;52.064;113.478;2023-03-03T09:34:56;93850.25;;;9.79
70415;BMP280;57837;52.064;113.478;2023-03-03T09:38:01;93849.69;;;9.63
70415;BMP280;57837;52.064;113.478;2023-03-03T09:45:16;93858.97;;;9.38
70415;BMP280;57837;52.064;113.478;2023-03-03T10:05:39;93853.75;;;8.57
70415;BMP280;57837;52.064;113.478;2023-03-03T10:22:39;93854.88;;;8.18
70415;BMP280;57837;52.064;113.478;2023-03-03T10:26:34;93868.22;;;8.00
70415;BMP280;57837;52.064;113.478;2023-03-03T10:43:13;93893.00;;;6.88
70415;BMP280;57837;52.064;113.478;2023-03-03T10:46:43;93898.41;;;6.57
70415;BMP280;57837;52.064;113.478;2023-03-03T10:56:26;93905.06;;;5.99
70415;BMP280;57837;52.064;113.478;2023-03-03T11:03:56;93906.88;;;5.79
70415;BMP280;57837;52.064;113.478;2023-03-03T11:06:47;93918.22;;;5.58
70415;BMP280;57837;52.064;113.478;2023-03-03T11:10:23;93922.69;;;5.54
70415;BMP280;57837;52.064;113.478;2023-03-03T11:20:51;93929.41;;;5.21
70415;BMP280;57837;52.064;113.478;2023-03-03T11:43:52;93949.50;;;4.99
70415;BMP280;57837;52.064;113.478;2023-03-03T11:50:14;93948.19;;;5.14
70415;BMP280;57837;52.064;113.478;2023-03-03T11:56:42;93941.81;;;4.69
70415;BMP280;57837;52.064;113.478;2023-03-03T12:07:31;93950.41;;;4.17
70415;BMP280;57837;52.064;113.478;2023-03-03T12:13:59;93957.47;;;4.06
70415;BMP280;57837;52.064;113.478;2023-03-03T12:37:10;93955.28;;;5.30
70415;BMP280;57837;52.064;113.478;2023-03-03T12:40:31;93952.44;;;4.97
70415;BMP280;57837;52.064;113.478;2023-03-03T12:43:46;93954.41;;;4.90
70415;BMP280;57837;52.064;113.478;2023-03-03T12:54:10;93962.59;;;4.44
70415;BMP280;57837;52.064;113.478;2023-03-03T13:07:22;93946.84;;;3.67
70415;BMP280;57837;52.064;113.478;2023-03-03T13:14:40;93941.72;;;3.67
70415;BMP280;57837;52.064;113.478;2023-03-03T13:17:30;93949.41;;;3.63
70415;BMP280;57837;52.064;113.478;2023-03-03T13:27:34;93955.56;;;3.18
70415;BMP280;57837;52.064;113.478;2023-03-03T13:30:47;93954.94;;;2.96
70415;BMP280;57837;52.064;113.478;2023-03-03T13:33:55;93956.09;;;2.81
70415;BMP280;57837;52.064;113.478;2023-03-03T13:37:10;93953.53;;;2.84
70415;BMP280;57837;52.064;113.478;2023-03-03T13:43:28;93955.09;;;2.53
70415;BMP280;57837;52.064;113.478;2023-03-03T14:06:22;93969.00;;;2.38
70415;BMP280;57837;52.064;113.478;2023-03-03T14:09:51;93968.25;;;2.45
70415;BMP280;57837;52.064;113.478;2023-03-03T14:19:38;93966.44;;;2.41
70415;BMP280;57837;52.064;113.478;2023-03-03T14:22:53;93956.97;;;2.24
70415;BMP280;57837;52.064;113.478;2023-03-03T14:26:07;93954.06;;;1.97
70415;BMP280;57837;52.064;113.478;2023-03-03T14:32:29;93957.75;;;1.82
70415;BMP280;57837;52.064;113.478;2023-03-03T14:35:59;93953.38;;;1.86
70415;BMP280;57837;52.064;113.478;2023-03-03T14:39:35;93950.44;;;1.73
70415;BMP280;57837;52.064;113.478;2023-03-03T14:45:54;93961.75;;;1.76
70415;BMP280;57837;52.064;113.478;2023-03-03T14:49:15;93963.56;;;1.61
70415;BMP280;57837;52.064;113.478;2023-03-03T14:52:33;93957.69;;;1.43
70415;BMP280;57837;52.064;113.478;2023-03-03T14:55:40;93958.06;;;1.45
70415;BMP280;57837;52.064;113.478;2023-03-03T14:58:45;93961.00;;;1.54
70415;BMP280;57837;52.064;113.478;2023-03-03T15:05:24;93949.31;;;1.43
70415;BMP280;57837;52.064;113.478;2023-03-03T15:08:33;93944.22;;;1.32
70415;BMP280;57837;52.064;113.478;2023-03-03T15:11:37;93949.28;;;1.39
70415;BMP280;57837;52.064;113.478;2023-03-03T15:14:44;93947.50;;;1.47
70415;BMP280;57837;52.064;113.478;2023-03-03T15:21:04;93944.19;;;1.25
70415;BMP280;57837;52.064;113.478;2023-03-03T15:24:33;93959.09;;;1.19
70415;BMP280;57837;52.064;113.478;2023-03-03T15:27:46;93951.44;;;1.05
70415;BMP280;57837;52.064;113.478;2023-03-03T15:37:46;93955.03;;;0.97
70415;BMP280;57837;52.064;113.478;2023-03-03T15:41:23;93951.38;;;0.94
70415;BMP280;57837;52.064;113.478;2023-03-03T15:44:55;93938.94;;;0.82
70415;BMP280;57837;52.064;113.478;2023-03-03T16:05:24;93912.38;;;0.76
70415;BMP280;57837;52.064;113.478;2023-03-03T16:08:12;93913.75;;;0.63
70415;BMP280;57837;52.064;113.478;2023-03-03T16:11:36;93914.09;;;0.51
70415;BMP280;57837;52.064;113.478;2023-03-03T16:25:06;93926.53;;;0.05
70415;BMP280;57837;52.064;113.478;2023-03-03T16:31:36;93920.34;;;0.02
70415;BMP280;57837;52.064;113.478;2023-03-03T16:35:20;93919.97;;;-0.04
70415;BMP280;57837;52.064;113.478;2023-03-03T16:51:47;93916.00;;;0.03
70415;BMP280;57837;52.064;113.478;2023-03-03T16:54:54;93914.91;;;0.04
70415;BMP280;57837;52.064;113.478;2023-03-03T16:58:22;93898.19;;;-0.01
70415;BMP280;57837;52.064;113.478;2023-03-03T17:11:31;93905.63;;;-0.26
70415;BMP280;57837;52.064;113.478;2023-03-03T17:15:00;93906.00;;;-0.27
70415;BMP280;57837;52.064;113.478;2023-03-03T17:28:26;93903.50;;;-0.17
70415;BMP280;57837;52.064;113.478;2023-03-03T17:38:13;93892.28;;;-0.12
70415;BMP280;57837;52.064;113.478;2023-03-03T17:41:42;93892.28;;;-0.12
70415;BMP280;57837;52.064;113.478;2023-03-03T17:55:39;93882.00;;;-0.30
70415;BMP280;57837;52.064;113.478;2023-03-03T17:59:13;93889.16;;;-0.39
70415;BMP280;57837;52.064;113.478;2023-03-03T18:12:37;93888.50;;;-0.73
70415;BMP280;57837;52.064;113.478;2023-03-03T18:26:41;93876.34;;;-0.50
70415;BMP280;57837;52.064;113.478;2023-03-03T18:33:10;93867.66;;;-0.49
70415;BMP280;57837;52.064;113.478;2023-03-03T18:36:37;93870.16;;;-0.52
70415;BMP280;57837;52.064;113.478;2023-03-03T18:39:49;93869.97;;;-0.74
70415;BMP280;57837;52.064;113.478;2023-03-03T18:46:48;93862.09;;;-1.36
70415;BMP280;57837;52.064;113.478;2023-03-03T18:49:56;93849.25;;;-1.50
70415;BMP280;57837;52.064;113.478;2023-03-03T18:56:42;93851.38;;;-1.22
70415;BMP280;57837;52.064;113.478;2023-03-03T18:59:53;93857.53;;;-1.23
70415;BMP280;57837;52.064;113.478;2023-03-03T19:02:58;93859.66;;;-1.28
70415;BMP280;57837;52.064;113.478;2023-03-03T19:06:04;93848.66;;;-1.36
70415;BMP280;57837;52.064;113.478;2023-03-03T19:09:11;93850.63;;;-1.26
70415;BMP280;57837;52.064;113.478;2023-03-03T19:15:53;93843.38;;;-1.24
70415;BMP280;57837;52.064;113.478;2023-03-03T19:19:01;93841.59;;;-1.23
70415;BMP280;57837;52.064;113.478;2023-03-03T19:22:25;93833.16;;;-1.31
70415;BMP280;57837;52.064;113.478;2023-03-03T19:25:30;93826.19;;;-1.34
70415;BMP280;57837;52.064;113.478;2023-03-03T19:28:42;93821.84;;;-1.37
70415;BMP280;57837;52.064;113.478;2023-03-03T19:38:50;93831.22;;;-1.41
70415;BMP280;57837;52.064;113.478;2023-03-03T19:48:59;93826.28;;;-1.60
70415;BMP280;57837;52.064;113.478;2023-03-03T19:52:27;93819.72;;;-1.65
70415;BMP280;57837;52.064;113.478;2023-03-03T19:59:06;93822.66;;;-1.59
70415;BMP280;57837;52.064;113.478;2023-03-03T20:02:56;93829.44;;;-1.71
70415;BMP280;57837;52.064;113.478;2023-03-03T20:09:25;93797.03;;;-2.11
70415;BMP280;57837;52.064;113.478;2023-03-03T20:16:12;93803.28;;;-2.05
70415;BMP280;57837;52.064;113.478;2023-03-03T20:22:55;93784.81;;;-2.05
70415;BMP280;57837;52.064;113.478;2023-03-03T20:26:22;93780.66;;;-2.17
70415;BMP280;57837;52.064;113.478;2023-03-03T20:40:22;93769.38;;;-2.49
70415;BMP280;57837;52.064;113.478;2023-03-03T20:57:12;93736.75;;;-3.00
70415;BMP280;57837;52.064;113.478;2023-03-03T21:03:31;93736.19;;;-2.90
70415;BMP280;57837;52.064;113.478;2023-03-03T21:06:37;93733.28;;;-2.92
70415;BMP280;57837;52.064;113.478;2023-03-03T21:09:42;93729.19;;;-2.96
70415;BMP280;57837;52.064;113.478;2023-03-03T21:12:45;93724.09;;;-3.23
70415;BMP280;57837;52.064;113.478;2023-03-03T21:16:00;93708.38;;;-3.74
70415;BMP280;57837;52.064;113.478;2023-03-03T21:22:08;93718.97;;;-4.58
70415;BMP280;57837;52.064;113.478;2023-03-03T21:25:41;93713.03;;;-4.81
70415;BMP280;57837;52.064;113.478;2023-03-03T21:28:59;93702.72;;;-4.92
70415;BMP280;57837;52.064;113.478;2023-03-03T21:32:06;93717.34;;;-5.13
70415;BMP280;57837;52.064;113.478;2023-03-03T21:35:15;93715.47;;;-5.16
70415;BMP280;57837;52.064;113.478;2023-03-03T21:38:33;93701.53;;;-5.10
70415;BMP280;57837;52.064;113.478;2023-03-03T21:41:53;93704.81;;;-4.94
70415;BMP280;57837;52.064;113.478;2023-03-03T21:45:08;93691.16;;;-4.93
70415;BMP280;57837;52.064;113.478;2023-03-03T21:48:12;93698.81;;;-5.05
70415;BMP280;57837;52.064;113.478;2023-03-03T21:51:15;93703.66;;;-5.28
70415;BMP280;57837;52.064;113.478;2023-03-03T21:54:19;93699.34;;;-5.28
70415;BMP280;57837;52.064;113.478;2023-03-03T21:57:23;93697.38;;;-5.34
70415;BMP280;57837;52.064;113.478;2023-03-03T22:00:26;93703.91;;;-5.33
70415;BMP280;57837;52.064;113.478;2023-03-03T22:03:29;93701.41;;;-5.45
70415;BMP280;57837;52.064;113.478;2023-03-03T22:06:32;93696.78;;;-5.43
70415;BMP280;57837;52.064;113.478;2023-03-03T22:09:36;93688.44;;;-5.32
70415;BMP280;57837;52.064;113.478;2023-03-03T22:12:40;93686.88;;;-5.36
70415;BMP280;57837;52.064;113.478;2023-03-03T22:15:44;93692.91;;;-5.41
70415;BMP280;57837;52.064;113.478;2023-03-03T22:18:47;93691.84;;;-5.40
70415;BMP280;57837;52.064;113.478;2023-03-03T22:21:50;93683.69;;;-5.21
70415;BMP280;57837;52.064;113.478;2023-03-03T22:24:54;93671.53;;;-5.15
70415;BMP280;57837;52.064;113.478;2023-03-03T22:27:57;93667.41;;;-5.23
70415;BMP280;57837;52.064;113.478;2023-03-03T22:31:00;93667.41;;;-5.23
70415;BMP280;57837;52.064;113.478;2023-03-03T22:34:03;93663.38;;;-5.40
70415;BMP280;57837;52.064;113.478;2023-03-03T22:37:07;93666.75;;;-5.64
70415;BMP280;57837;52.064;113.478;2023-03-03T22:40:11;93670.25;;;-5.69
70415;BMP280;57837;52.064;113.478;2023-03-03T22:43:14;93670.72;;;-5.63
70415;BMP280;57837;52.064;113.478;2023-03-03T22:46:17;93669.50;;;-5.69
70415;BMP280;57837;52.064;113.478;2023-03-03T22:49:20;93663.88;;;-5.78
70415;BMP280;57837;52.064;113.478;2023-03-03T22:52:24;93664.94;;;-5.79
70415;BMP280;57837;52.064;113.478;2023-03-03T22:55:26;93660.72;;;-5.75
70415;BMP280;57837;52.064;113.478;2023-03-03T22:58:30;93667.69;;;-5.84
70415;BMP280;57837;52.064;113.478;2023-03-03T23:01:33;93667.84;;;-6.05
70415;BMP280;57837;52.064;113.478;2023-03-03T23:04:36;93661.31;;;-6.34
70415;BMP280;57837;52.064;113.478;2023-03-03T23:07:39;93657.66;;;-6.61
70415;BMP280;57837;52.064;113.478;2023-03-03T23:10:43;93649.69;;;-6.75
70415;BMP280;57837;52.064;113.478;2023-03-03T23:13:46;93654.81;;;-6.72
70415;BMP280;57837;52.064;113.478;2023-03-03T23:16:49;93652.94;;;-6.75
70415;BMP280;57837;52.064;113.478;2023-03-03T23:19:53;93646.25;;;-6.83
70415;BMP280;57837;52.064;113.478;2023-03-03T23:22:56;93643.63;;;-6.87
70415;BMP280;57837;52.064;113.478;2023-03-03T23:25:59;93636.50;;;-6.85
70415;BMP280;57837;52.064;113.478;2023-03-03T23:29:03;93639.41;;;-6.58
70415;BMP280;57837;52.064;113.478;2023-03-03T23:32:07;93636.34;;;-6.52
70415;BMP280;57837;52.064;113.478;2023-03-03T23:35:11;93634.81;;;-6.56
70415;BMP280;57837;52.064;113.478;2023-03-03T23:38:14;93628.06;;;-6.52
70415;BMP280;57837;52.064;113.478;2023-03-03T23:41:19;93628.19;;;-6.49
70415;BMP280;57837;52.064;113.478;2023-03-03T23:44:22;93629.13;;;-6.53
70415;BMP280;57837;52.064;113.478;2023-03-03T23:47:25;93626.94;;;-6.55
70415;BMP280;57837;52.064;113.478;2023-03-03T23:50:28;93625.69;;;-6.61
70415;BMP280;57837;52.064;113.478;2023-03-03T23:53:32;93622.84;;;-6.71
70415;BMP280;57837;52.064;113.478;2023-03-03T23:56:35;93621.59;;;-6.77
70415;BMP280;57837;52.064;113.478;2023-03-03T23:59:38;93621.28;;;-6.64
